Time;durP1;ratioP1;P1;durP2;ratioP2;P2;SDS_P1;SDS_P2;PMS_P1;PMS_P2;Temp;Humidity;BMP_temperature;BMP_pressure;BME280_temperature;BME280_humidity;BME280_pressure;Samples;Min_cycle;Max_cycle;Signal;HPM_P1;HPM_P2
2022/10/24 00:02:07;;;;;;;5.23;1.47;;;;;;;14.84;100.00;95965.09;5045303;28;20100;-77
2022/10/24 00:04:38;;;;;;;7.65;1.52;;;;;;;14.85;100.00;95961.44;5043263;28;20067;-77
2022/10/24 00:07:05;;;;;;;5.27;1.00;;;;;;;14.92;100.00;95969.44;5059750;28;20033;-77
2022/10/24 00:09:32;;;;;;;5.40;1.27;;;;;;;14.91;100.00;95965.97;5045812;28;20036;-77
2022/10/24 00:11:58;;;;;;;5.90;1.30;;;;;;;14.94;100.00;95957.66;5038648;28;20556;-77
2022/10/24 00:14:24;;;;;;;4.80;0.97;;;;;;;14.99;100.00;95959.69;5047681;28;20048;-77
2022/10/24 00:16:50;;;;;;;6.70;1.10;;;;;;;15.04;100.00;95946.72;5046771;28;20669;-77
2022/10/24 00:19:15;;;;;;;8.93;1.83;;;;;;;15.04;100.00;95958.13;5043457;28;20061;-77
2022/10/24 00:21:41;;;;;;;8.88;1.30;;;;;;;15.00;100.00;95951.59;5031505;28;20033;-77
2022/10/24 00:24:07;;;;;;;3.90;1.02;;;;;;;14.99;100.00;95949.97;5038205;28;20063;-77
2022/10/24 00:26:34;;;;;;;6.22;1.23;;;;;;;15.05;100.00;95948.34;5043281;28;20100;-77
2022/10/24 00:29:00;;;;;;;5.38;1.92;;;;;;;15.17;100.00;95941.50;5035542;28;20449;-77
2022/10/24 00:31:26;;;;;;;3.50;1.05;;;;;;;15.18;100.00;95951.06;5045632;28;20065;-77
2022/10/24 00:33:51;;;;;;;9.05;1.50;;;;;;;15.24;100.00;95955.59;5029944;28;20493;-77
2022/10/24 00:36:20;;;;;;;6.22;1.77;;;;;;;15.20;100.00;95959.66;5046235;28;20064;-77
2022/10/24 00:38:47;;;;;;;7.57;1.13;;;;;;;15.05;100.00;95958.94;5046167;28;20047;-77
2022/10/24 00:41:16;;;;;;;7.00;1.30;;;;;;;14.93;100.00;95952.56;5046329;28;20412;-77
2022/10/24 00:43:41;;;;;;;7.10;1.63;;;;;;;14.94;100.00;95964.78;5047161;28;20040;-77
2022/10/24 00:46:07;;;;;;;9.47;1.40;;;;;;;14.87;100.00;95961.25;5046200;28;20032;-77
2022/10/24 00:48:40;;;;;;;4.18;1.30;;;;;;;14.83;100.00;95974.06;5045879;28;20040;-77
2022/10/24 00:51:31;;;;;;;6.22;1.48;;;;;;;14.87;100.00;95966.56;5040062;28;20025;-77
2022/10/24 00:54:01;;;;;;;7.37;2.00;;;;;;;14.81;100.00;95958.38;5046243;28;20638;-77
2022/10/24 00:56:31;;;;;;;4.38;1.17;;;;;;;14.77;100.00;95974.84;5047156;28;20611;-77
2022/10/24 00:58:58;;;;;;;5.40;1.30;;;;;;;14.73;100.00;95973.59;5025453;28;20032;-77
2022/10/24 01:01:25;;;;;;;9.73;1.52;;;;;;;14.73;100.00;95981.53;5026944;28;20682;-77
2022/10/24 01:03:51;;;;;;;6.68;1.88;;;;;;;14.71;100.00;95981.69;5045505;28;20040;-77
2022/10/24 01:06:44;;;;;;;10.15;1.50;;;;;;;14.66;100.00;95980.66;5043528;28;20036;-77
2022/10/24 01:09:48;;;;;;;7.57;2.10;;;;;;;14.66;100.00;95986.75;5044767;28;20393;-77
2022/10/24 01:12:47;;;;;;;4.22;0.90;;;;;;;14.68;100.00;95974.13;5020671;28;20041;-77
2022/10/24 01:15:22;;;;;;;4.13;1.50;;;;;;;14.69;100.00;95980.25;5035851;28;20059;-77
2022/10/24 01:18:11;;;;;;;10.20;1.20;;;;;;;14.68;100.00;95979.44;5027493;28;20100;-77
2022/10/24 01:20:49;;;;;;;3.57;1.20;;;;;;;14.63;100.00;95981.03;5058639;28;20049;-77
2022/10/24 01:23:48;;;;;;;9.43;1.60;;;;;;;14.70;100.00;95979.25;5041200;28;20090;-77
2022/10/24 01:26:29;;;;;;;6.30;1.67;;;;;;;14.64;100.00;95983.47;5027467;28;20154;-77
2022/10/24 01:29:17;;;;;;;3.15;1.25;;;;;;;14.57;100.00;95977.31;5043548;28;20524;-77
2022/10/24 01:31:52;;;;;;;5.63;1.48;;;;;;;14.59;100.00;95985.88;5046150;28;20036;-77
2022/10/24 01:34:45;;;;;;;6.80;2.35;;;;;;;14.47;100.00;95992.66;5040549;28;20091;-77
2022/10/24 01:37:41;;;;;;;7.40;1.58;;;;;;;14.56;100.00;95989.72;5027134;28;20048;-77
2022/10/24 01:40:19;;;;;;;4.23;1.23;;;;;;;14.52;100.00;95982.34;5044239;28;20052;-77
2022/10/24 01:42:47;;;;;;;4.82;1.50;;;;;;;14.47;100.00;95985.53;5050319;28;20383;-77
2022/10/24 01:45:21;;;;;;;2.70;1.10;;;;;;;14.48;100.00;95981.88;5044298;28;20116;-77
2022/10/24 01:47:53;;;;;;;3.83;1.50;;;;;;;14.39;100.00;95985.69;5055932;28;20057;-77
2022/10/24 01:50:22;;;;;;;4.68;1.77;;;;;;;14.32;100.00;95980.31;5031810;28;20076;-77
2022/10/24 01:52:49;;;;;;;4.25;1.30;;;;;;;14.29;100.00;95980.69;5030900;28;20039;-77
2022/10/24 01:55:15;;;;;;;6.13;1.30;;;;;;;14.32;100.00;95980.31;5042770;28;20216;-77
2022/10/24 01:57:41;;;;;;;6.47;1.57;;;;;;;14.33;100.00;95981.94;5039875;28;20501;-77
2022/10/24 02:00:13;;;;;;;10.07;1.90;;;;;;;14.32;100.00;95990.91;5032094;28;20039;-77
2022/10/24 02:02:44;;;;;;;6.07;1.43;;;;;;;14.35;100.00;95979.94;5053693;28;20033;-77
2022/10/24 02:05:17;;;;;;;7.97;2.80;;;;;;;14.36;100.00;95991.34;5057882;28;20399;-78
2022/10/24 02:07:47;;;;;;;5.00;1.63;;;;;;;14.41;100.00;95993.41;5033280;28;20469;-77
2022/10/24 02:10:20;;;;;;;7.93;1.67;;;;;;;14.41;100.00;95982.81;5052195;28;20103;-77
2022/10/24 02:12:51;;;;;;;3.38;1.20;;;;;;;14.42;100.00;95980.00;5052298;28;20029;-77
2022/10/24 02:15:28;;;;;;;6.70;1.50;;;;;;;14.42;100.00;95984.47;5044356;28;20123;-77
2022/10/24 02:17:55;;;;;;;7.40;1.90;;;;;;;14.38;100.00;95979.56;5039710;28;20037;-77
2022/10/24 02:20:29;;;;;;;8.33;2.23;;;;;;;14.39;100.00;95975.91;5030781;28;20051;-77
2022/10/24 02:23:02;;;;;;;8.40;1.60;;;;;;;14.40;100.00;95960.84;5060923;28;20512;-77
2022/10/24 02:25:34;;;;;;;4.72;1.13;;;;;;;14.40;100.00;95963.50;5040324;28;20091;-77
2022/10/24 02:28:06;;;;;;;6.50;1.47;;;;;;;14.39;100.00;95965.31;5033397;28;20128;-77
2022/10/24 02:30:38;;;;;;;7.07;1.37;;;;;;;14.38;100.00;95971.63;5050123;28;20434;-76
2022/10/24 02:33:04;;;;;;;6.60;1.70;;;;;;;14.42;100.00;95974.72;5051058;28;20035;-77
2022/10/24 02:35:34;;;;;;;5.40;1.47;;;;;;;14.45;100.00;95978.78;5047281;28;20457;-77
2022/10/24 02:38:14;;;;;;;6.20;1.50;;;;;;;14.52;100.00;95980.53;5033087;28;20446;-77
2022/10/24 02:40:43;;;;;;;8.37;1.70;;;;;;;14.51;100.00;95988.66;5035930;28;20116;-77
2022/10/24 02:43:11;;;;;;;7.40;1.70;;;;;;;14.49;100.00;95982.72;5051070;28;20033;-77
2022/10/24 02:45:37;;;;;;;8.93;1.50;;;;;;;14.51;100.00;95972.78;5049894;28;20040;-77
2022/10/24 02:48:15;;;;;;;7.03;1.60;;;;;;;14.53;100.00;95968.13;5048610;28;20393;-77
2022/10/24 02:50:42;;;;;;;9.10;1.77;;;;;;;14.55;100.00;95976.66;5047214;28;20052;-77
2022/10/24 02:53:14;;;;;;;8.90;1.85;;;;;;;14.59;100.00;95970.00;5049566;28;20822;-77
2022/10/24 02:55:40;;;;;;;12.23;3.20;;;;;;;14.66;100.00;95980.66;5029782;28;20402;-77
2022/10/24 02:58:05;;;;;;;7.50;1.52;;;;;;;14.65;100.00;95968.41;5029717;28;20041;-77
2022/10/24 03:00:31;;;;;;;13.00;2.55;;;;;;;14.70;100.00;95973.97;5046492;28;20028;-77
2022/10/24 03:02:57;;;;;;;15.07;1.83;;;;;;;14.75;100.00;95961.78;5047876;28;20071;-77
2022/10/24 03:05:22;;;;;;;9.05;1.88;;;;;;;14.77;100.00;95988.06;5047950;28;20543;-77
2022/10/24 03:07:48;;;;;;;8.05;2.20;;;;;;;14.70;100.00;95982.72;5046832;28;20123;-77
2022/10/24 03:10:14;;;;;;;7.55;1.63;;;;;;;14.75;100.00;95992.72;5047063;28;20060;-77
2022/10/24 03:12:39;;;;;;;13.15;3.17;;;;;;;14.73;100.00;95987.63;5047733;28;20040;-77
2022/10/24 03:15:05;;;;;;;11.60;2.80;;;;;;;14.79;100.00;95986.88;5031007;28;20040;-77
2022/10/24 03:17:31;;;;;;;8.30;2.80;;;;;;;14.91;100.00;95975.75;5030690;28;20044;-77
2022/10/24 03:19:57;;;;;;;6.90;2.08;;;;;;;14.92;100.00;95951.72;5047477;28;20033;-76
2022/10/24 03:22:22;;;;;;;6.10;2.40;;;;;;;15.00;100.00;95958.72;5047491;28;20033;-77
2022/10/24 03:24:48;;;;;;;8.80;2.40;;;;;;;14.98;100.00;95936.91;5047928;28;20040;-77
2022/10/24 03:27:14;;;;;;;15.23;2.05;;;;;;;14.98;100.00;95932.41;5047468;28;20037;-77
2022/10/24 03:29:40;;;;;;;7.80;3.38;;;;;;;15.08;100.00;95927.59;5066992;28;20032;-77
2022/10/24 03:32:06;;;;;;;12.52;2.05;;;;;;;14.94;100.00;95956.84;5047201;28;20052;-77
2022/10/24 03:34:32;;;;;;;7.93;2.47;;;;;;;14.93;100.00;95973.75;5031295;28;20041;-78
2022/10/24 03:36:57;;;;;;;15.18;2.63;;;;;;;14.91;100.00;95970.44;5047708;28;20041;-77
2022/10/24 03:39:23;;;;;;;8.77;2.88;;;;;;;14.84;100.00;95971.22;5046836;28;20079;-77
2022/10/24 03:41:49;;;;;;;10.77;2.73;;;;;;;14.81;100.00;95966.31;5048475;28;20075;-77
2022/10/24 03:44:14;;;;;;;9.35;2.15;;;;;;;14.82;100.00;95986.50;5047441;28;20041;-76
2022/10/24 03:46:40;;;;;;;20.43;3.83;;;;;;;14.79;100.00;95996.66;5048419;28;20568;-77
2022/10/24 03:49:06;;;;;;;10.50;2.83;;;;;;;14.70;100.00;95995.94;5046899;28;20375;-77
2022/10/24 03:51:31;;;;;;;8.65;3.17;;;;;;;14.71;100.00;95997.59;5027121;28;20075;-77
2022/10/24 03:53:57;;;;;;;16.43;4.40;;;;;;;14.66;100.00;96000.00;5025825;28;20029;-77
2022/10/24 03:56:23;;;;;;;11.43;2.60;;;;;;;14.77;100.00;95988.88;5043134;28;20486;-77
2022/10/24 03:58:48;;;;;;;16.25;3.33;;;;;;;14.76;100.00;95986.44;5043478;28;20025;-77
2022/10/24 04:01:16;;;;;;;11.23;2.53;;;;;;;14.78;100.00;95990.50;5028903;28;20036;-77
2022/10/24 04:03:45;;;;;;;9.13;3.00;;;;;;;14.73;100.00;95994.75;5042012;28;20045;-77
2022/10/24 04:06:12;;;;;;;12.83;2.60;;;;;;;14.72;100.00;95982.50;5061360;28;20475;-77
2022/10/24 04:08:38;;;;;;;13.63;2.45;;;;;;;14.78;100.00;95993.16;5035967;28;20047;-77
2022/10/24 04:11:05;;;;;;;6.90;1.97;;;;;;;14.74;100.00;95983.16;5035077;28;20113;-77
2022/10/24 04:13:30;;;;;;;8.60;2.20;;;;;;;14.76;100.00;95979.31;5050705;28;20036;-77
2022/10/24 04:15:56;;;;;;;11.50;2.23;;;;;;;14.71;100.00;95970.28;5027261;28;20033;-77
2022/10/24 04:18:22;;;;;;;5.50;2.20;;;;;;;14.72;100.00;95948.94;5046587;28;20448;-79
2022/10/24 04:20:49;;;;;;;13.15;2.60;;;;;;;14.73;100.00;95971.75;5047004;28;20043;-77
2022/10/24 04:23:14;;;;;;;8.57;2.63;;;;;;;14.76;100.00;95967.91;5042979;28;20033;-78
2022/10/24 04:25:40;;;;;;;8.00;2.03;;;;;;;14.74;100.00;95969.91;5060987;28;20033;-77
2022/10/24 04:28:06;;;;;;;8.63;1.80;;;;;;;14.80;100.00;95963.88;5046000;28;20040;-77
2022/10/24 04:30:32;;;;;;;10.03;2.43;;;;;;;14.77;100.00;95978.28;5047130;28;20032;-77
2022/10/24 04:32:57;;;;;;;10.53;2.00;;;;;;;14.80;100.00;95972.63;5044135;28;20024;-77
2022/10/24 04:35:24;;;;;;;8.55;2.00;;;;;;;14.82;100.00;95985.66;5023892;28;20410;-76
2022/10/24 04:37:50;;;;;;;9.63;2.23;;;;;;;14.74;100.00;95983.16;5042829;28;20130;-76
2022/10/24 04:40:16;;;;;;;9.73;2.27;;;;;;;14.78;100.00;95987.88;5044207;28;20662;-77
2022/10/24 04:42:41;;;;;;;7.97;2.30;;;;;;;14.77;100.00;95996.00;5045854;28;20768;-77
2022/10/24 04:45:08;;;;;;;7.33;2.10;;;;;;;14.79;100.00;96002.75;5045989;28;20083;-77
2022/10/24 04:47:34;;;;;;;11.50;2.43;;;;;;;14.76;100.00;96007.63;5050356;28;20059;-77
2022/10/24 04:49:59;;;;;;;10.20;1.90;;;;;;;14.82;100.00;95990.94;5043023;28;20043;-77
2022/10/24 04:52:25;;;;;;;12.33;3.33;;;;;;;14.77;100.00;95990.72;5055321;28;20016;-77
2022/10/24 04:54:51;;;;;;;8.23;2.53;;;;;;;14.78;100.00;95984.41;5045467;28;20140;-77
2022/10/24 04:57:16;;;;;;;7.47;1.70;;;;;;;14.78;100.00;95977.28;5041823;28;20049;-77
2022/10/24 04:59:42;;;;;;;7.97;2.03;;;;;;;14.81;100.00;95968.94;5043372;28;20045;-77
2022/10/24 05:02:08;;;;;;;7.20;2.30;;;;;;;14.83;100.00;95974.88;5056354;28;20071;-77
2022/10/24 05:04:33;;;;;;;6.25;2.40;;;;;;;14.89;100.00;95969.81;5046618;28;20033;-77
2022/10/24 05:06:59;;;;;;;6.83;2.23;;;;;;;14.81;100.00;95971.59;5029198;28;20409;-78
2022/10/24 05:09:26;;;;;;;10.23;2.23;;;;;;;14.77;100.00;95975.66;5045144;28;20041;-77
2022/10/24 05:11:55;;;;;;;8.23;2.22;;;;;;;14.75;100.00;95964.41;5044063;28;20479;-77
2022/10/24 05:14:21;;;;;;;7.80;2.20;;;;;;;14.72;100.00;95964.84;5029532;28;20035;-77
2022/10/24 05:16:48;;;;;;;10.83;2.43;;;;;;;14.75;100.00;95974.19;5051322;28;20037;-77
2022/10/24 05:19:15;;;;;;;8.07;2.20;;;;;;;14.68;100.00;95968.03;5049421;28;20083;-78
2022/10/24 05:21:41;;;;;;;12.35;2.40;;;;;;;14.71;100.00;95967.66;5041556;28;20032;-77
2022/10/24 05:24:06;;;;;;;10.50;2.10;;;;;;;14.70;100.00;95966.03;5033566;28;20029;-77
2022/10/24 05:26:32;;;;;;;7.55;2.08;;;;;;;14.59;100.00;95975.31;5051681;28;20037;-77
2022/10/24 05:28:58;;;;;;;4.80;2.28;;;;;;;14.63;100.00;95975.75;5033431;28;20036;-77
2022/10/24 05:31:23;;;;;;;7.05;2.10;;;;;;;14.57;100.00;95962.25;5051037;28;20082;-77
2022/10/24 05:33:49;;;;;;;6.88;2.70;;;;;;;14.62;100.00;95972.28;5043968;28;20062;-77
2022/10/24 05:36:15;;;;;;;12.37;3.30;;;;;;;14.62;100.00;95964.34;5050479;28;20563;-77
2022/10/24 05:38:41;;;;;;;7.93;2.08;;;;;;;14.69;100.00;95964.38;5033065;28;20128;-77
2022/10/24 05:41:07;;;;;;;7.07;2.27;;;;;;;14.60;100.00;95966.34;5050186;28;20039;-77
2022/10/24 05:43:32;;;;;;;7.47;2.90;;;;;;;14.58;100.00;95985.03;5049744;28;20033;-77
2022/10/24 05:45:58;;;;;;;8.07;1.93;;;;;;;14.54;100.00;95983.78;5055147;28;20118;-77
2022/10/24 05:48:24;;;;;;;6.70;1.50;;;;;;;14.57;100.00;95979.97;5076133;28;20056;-77
2022/10/24 05:50:49;;;;;;;7.40;2.00;;;;;;;14.49;100.00;95990.66;5073115;28;20444;-77
2022/10/24 05:53:15;;;;;;;6.97;1.87;;;;;;;14.49;100.00;95985.38;5056513;28;20021;-77
2022/10/24 05:55:41;;;;;;;6.80;2.27;;;;;;;14.48;100.00;95981.06;5033424;28;20025;-77
2022/10/24 05:58:06;;;;;;;8.20;2.40;;;;;;;14.43;100.00;95970.25;5049794;28;20037;-77
2022/10/24 06:00:32;;;;;;;8.07;1.87;;;;;;;14.42;100.00;95968.56;5033050;28;20033;-77
2022/10/24 06:02:59;;;;;;;9.23;2.03;;;;;;;14.44;100.00;95982.44;5050607;28;20677;-78
2022/10/24 06:05:25;;;;;;;9.90;2.47;;;;;;;14.45;100.00;95976.16;5051673;28;20032;-77
2022/10/24 06:07:52;;;;;;;5.40;1.93;;;;;;;14.42;100.00;95987.94;5048831;28;20063;-77
2022/10/24 06:10:18;;;;;;;9.00;2.73;;;;;;;14.42;100.00;95982.66;5051474;28;20032;-77
2022/10/24 06:12:43;;;;;;;6.13;1.67;;;;;;;14.39;100.00;95989.13;5053045;28;20033;-77
2022/10/24 06:15:11;;;;;;;11.47;2.53;;;;;;;14.41;100.00;95982.81;5052718;28;20642;-78
2022/10/24 06:17:37;;;;;;;6.63;1.87;;;;;;;14.33;100.00;95976.66;5027783;28;20064;-77
2022/10/24 06:20:04;;;;;;;10.50;1.97;;;;;;;14.41;100.00;95978.34;5055260;28;20060;-78
2022/10/24 06:22:30;;;;;;;5.40;1.70;;;;;;;14.42;100.00;95979.16;5058063;28;20056;-78
2022/10/24 06:24:55;;;;;;;8.17;2.10;;;;;;;14.43;100.00;95986.13;5061342;28;20068;-78
2022/10/24 06:27:22;;;;;;;7.43;2.08;;;;;;;14.37;100.00;95983.19;5049862;28;20033;-77
2022/10/24 06:29:49;;;;;;;6.07;2.10;;;;;;;14.39;100.00;95994.44;5049778;28;20037;-78
2022/10/24 06:32:14;;;;;;;8.55;1.92;;;;;;;14.42;100.00;96006.47;5052715;28;20025;-77
2022/10/24 06:34:40;;;;;;;8.33;2.23;;;;;;;14.37;100.00;96014.13;5052160;28;20441;-78
2022/10/24 06:37:06;;;;;;;10.88;2.10;;;;;;;14.34;100.00;96015.31;5052307;28;20032;-78
2022/10/24 06:39:31;;;;;;;6.78;2.17;;;;;;;14.35;100.00;96027.56;5042689;28;20510;-78
2022/10/24 06:41:57;;;;;;;7.73;2.03;;;;;;;14.28;100.00;96028.47;5064000;28;20037;-78
2022/10/24 06:44:25;;;;;;;5.78;1.83;;;;;;;14.25;100.00;96036.78;5052048;28;20036;-78
2022/10/24 06:46:50;;;;;;;7.53;1.85;;;;;;;14.23;100.00;96044.91;5032071;28;20405;-79
2022/10/24 06:49:16;;;;;;;10.02;2.38;;;;;;;14.29;100.00;96056.59;5052461;28;20033;-78
2022/10/24 06:51:42;;;;;;;8.40;2.17;;;;;;;14.36;100.00;96060.94;5051899;28;20098;-79
2022/10/24 06:54:08;;;;;;;9.05;2.38;;;;;;;14.42;100.00;96074.41;5051346;28;20029;-77
2022/10/24 06:56:34;;;;;;;9.82;3.10;;;;;;;14.41;100.00;96084.19;5047058;28;20029;-78
2022/10/24 06:58:59;;;;;;;8.48;2.05;;;;;;;14.32;100.00;96088.78;5050217;28;20036;-77
2022/10/24 07:01:26;;;;;;;11.43;1.65;;;;;;;14.30;100.00;96104.00;5051176;28;20427;-77
2022/10/24 07:03:53;;;;;;;7.17;2.10;;;;;;;14.38;100.00;96106.56;5051998;28;20114;-78
2022/10/24 07:06:21;;;;;;;7.13;2.70;;;;;;;14.44;100.00;96106.81;5048027;28;20034;-78
2022/10/24 07:08:47;;;;;;;13.10;2.28;;;;;;;14.49;100.00;96117.66;5050699;28;20040;-78
2022/10/24 07:11:13;;;;;;;12.88;2.30;;;;;;;14.50;100.00;96128.06;5055825;28;20035;-78
2022/10/24 07:13:39;;;;;;;7.87;2.53;;;;;;;14.45;100.00;96135.69;5047723;28;20033;-79
2022/10/24 07:16:05;;;;;;;7.70;1.92;;;;;;;14.51;100.00;96135.00;5056455;28;20028;-79
2022/10/24 07:18:31;;;;;;;7.22;2.47;;;;;;;14.49;100.00;96129.06;5055663;28;20029;-78
2022/10/24 07:21:05;;;;;;;10.65;2.58;;;;;;;14.53;100.00;96135.66;5052961;28;20048;-78
2022/10/24 07:23:32;;;;;;;9.73;2.85;;;;;;;14.53;100.00;96140.94;5054401;28;20040;-78
2022/10/24 07:26:09;;;;;;;9.15;2.10;;;;;;;14.53;100.00;96122.41;5052029;28;20047;-78
2022/10/24 07:28:37;;;;;;;8.15;2.17;;;;;;;14.47;100.00;96124.94;5031105;28;20040;-78
2022/10/24 07:31:04;;;;;;;7.13;2.03;;;;;;;14.43;100.00;96108.63;5048440;28;20417;-77
2022/10/24 07:33:31;;;;;;;7.78;2.92;;;;;;;14.22;100.00;96095.34;5047801;28;20029;-78
2022/10/24 07:35:58;;;;;;;6.82;1.90;;;;;;;14.22;100.00;96079.47;5031627;28;20063;-78
2022/10/24 07:38:24;;;;;;;13.23;2.75;;;;;;;14.22;100.00;96090.91;5048258;28;20036;-78
2022/10/24 07:40:49;;;;;;;6.28;2.42;;;;;;;14.30;100.00;96093.41;5053049;28;20489;-78
2022/10/24 07:43:17;;;;;;;5.70;1.77;;;;;;;14.37;100.00;96088.22;5057845;28;20020;-78
2022/10/24 07:45:43;;;;;;;5.43;2.92;;;;;;;14.37;100.00;96112.81;5064868;28;20765;-77
2022/10/24 07:48:10;;;;;;;5.78;2.10;;;;;;;14.35;100.00;96112.22;5047583;28;20036;-79
2022/10/24 07:50:42;;;;;;;9.80;2.08;;;;;;;14.39;100.00;96094.97;5045681;28;20116;-78
2022/10/24 07:53:08;;;;;;;6.38;1.90;;;;;;;14.39;100.00;96104.72;5045493;28;20103;-78
2022/10/24 07:55:37;;;;;;;8.85;2.40;;;;;;;14.43;100.00;96105.16;5045563;28;20037;-78
2022/10/24 07:58:03;;;;;;;10.30;3.15;;;;;;;14.45;100.00;96126.94;5047709;28;20038;-78
2022/10/24 08:00:29;;;;;;;12.15;3.42;;;;;;;14.46;100.00;96136.56;5047344;28;20033;-78
2022/10/24 08:02:56;;;;;;;12.07;3.03;;;;;;;14.44;100.00;96143.84;5053382;28;20028;-78
2022/10/24 08:05:21;;;;;;;9.50;3.38;;;;;;;14.44;100.00;96157.06;5043726;28;20433;-78
2022/10/24 08:07:47;;;;;;;11.05;3.65;;;;;;;14.42;100.00;96172.28;5050120;28;20116;-78
2022/10/24 08:10:13;;;;;;;10.15;3.72;;;;;;;14.35;100.00;96186.28;5048990;28;20123;-78
2022/10/24 08:12:38;;;;;;;9.13;2.50;;;;;;;14.41;100.00;96173.31;5048963;28;20040;-78
2022/10/24 08:15:05;;;;;;;13.10;3.55;;;;;;;14.39;100.00;96179.63;5056521;28;20024;-78
2022/10/24 08:17:31;;;;;;;7.43;2.13;;;;;;;14.30;100.00;96191.28;5046749;28;20436;-78
2022/10/24 08:19:56;;;;;;;7.63;2.50;;;;;;;14.45;100.00;96206.31;5046845;28;20041;-77
2022/10/24 08:22:22;;;;;;;13.68;3.95;;;;;;;14.29;100.00;96213.47;5029245;28;20025;-77
2022/10/24 08:24:48;;;;;;;13.73;4.30;;;;;;;14.17;100.00;96196.41;5046041;28;20037;-77
2022/10/24 08:27:13;;;;;;;12.57;3.55;;;;;;;13.94;100.00;96182.44;5046851;28;20040;-77
2022/10/24 08:29:40;;;;;;;10.57;2.58;;;;;;;13.82;100.00;96184.72;5047666;28;20075;-77
2022/10/24 08:32:06;;;;;;;10.93;3.17;;;;;;;13.84;100.00;96170.31;5045976;28;20140;-78
2022/10/24 08:34:32;;;;;;;9.75;3.22;;;;;;;13.70;100.00;96176.41;5044844;28;20471;-78
2022/10/24 08:36:58;;;;;;;13.87;3.10;;;;;;;13.62;100.00;96179.13;5045184;28;20060;-77
2022/10/24 08:39:25;;;;;;;10.60;2.60;;;;;;;13.59;100.00;96172.38;5052400;28;20404;-77
2022/10/24 08:42:03;;;;;;;9.53;2.90;;;;;;;13.55;100.00;96165.81;5047828;28;20494;-77
2022/10/24 08:44:34;;;;;;;10.00;2.60;;;;;;;13.57;100.00;96171.72;5046676;28;20036;-77
2022/10/24 08:47:06;;;;;;;9.47;2.10;;;;;;;13.55;100.00;96184.31;5047604;28;20039;-77
2022/10/24 08:49:39;;;;;;;6.17;2.33;;;;;;;13.55;100.00;96178.22;5046888;28;20049;-78
2022/10/24 08:52:05;;;;;;;10.70;2.27;;;;;;;13.60;100.00;96175.84;5044858;28;20564;-78
2022/10/24 08:54:38;;;;;;;9.13;2.70;;;;;;;13.61;100.00;96190.69;5048313;28;20033;-77
2022/10/24 08:57:05;;;;;;;5.45;1.52;;;;;;;13.64;100.00;96199.06;5050471;28;20107;-77
2022/10/24 08:59:34;;;;;;;13.47;3.60;;;;;;;13.59;100.00;96192.69;5049984;28;20178;-77
2022/10/24 09:02:19;;;;;;;5.83;2.37;;;;;;;13.59;100.00;96187.41;5050063;28;20115;-77
2022/10/24 09:05:16;;;;;;;9.13;2.73;;;;;;;13.62;100.00;96174.66;5050938;28;20143;-77
2022/10/24 09:07:45;;;;;;;8.93;2.50;;;;;;;13.59;100.00;96158.34;5049742;28;20033;-78
2022/10/24 09:10:22;;;;;;;9.40;2.77;;;;;;;13.54;100.00;96132.44;5052789;28;20029;-77
2022/10/24 09:12:48;;;;;;;9.67;3.00;;;;;;;13.42;100.00;96081.06;5033424;28;20029;-77
2022/10/24 09:15:27;;;;;;;10.00;2.90;;;;;;;13.34;100.00;96038.88;5049426;28;20039;-77
2022/10/24 09:17:55;;;;;;;9.70;3.30;;;;;;;13.24;100.00;96023.28;5048435;28;20090;-77
2022/10/24 09:20:28;;;;;;;9.30;3.10;;;;;;;13.29;100.00;96030.69;5050054;28;20032;-77
2022/10/24 09:22:58;;;;;;;10.60;3.53;;;;;;;13.33;100.00;96022.22;5048937;28;20132;-77
2022/10/24 09:25:32;;;;;;;8.83;3.07;;;;;;;13.43;100.00;96043.91;5050277;28;20111;-77
2022/10/24 09:28:01;;;;;;;9.77;4.00;;;;;;;13.53;100.00;96056.03;5048571;28;20849;-77
2022/10/24 09:30:27;;;;;;;12.67;4.57;;;;;;;13.63;100.00;96057.38;5048927;28;20068;-77
2022/10/24 09:32:56;;;;;;;11.93;3.80;;;;;;;13.64;100.00;96063.50;5052765;28;20033;-77
2022/10/24 09:35:24;;;;;;;11.93;3.57;;;;;;;13.71;100.00;96067.03;5033206;28;20026;-77
2022/10/24 09:37:56;;;;;;;6.63;2.57;;;;;;;13.79;100.00;96074.06;5047909;28;20122;-77
2022/10/24 09:40:39;;;;;;;11.77;3.10;;;;;;;13.96;100.00;96061.47;5050445;28;20450;-77
2022/10/24 09:43:20;;;;;;;;;;;;;;;14.06;100.00;96083.16;5036817;28;20025;-77
2022/10/24 09:45:55;;;;;;;8.83;2.60;;;;;;;14.17;100.00;96085.31;5049828;28;20021;-78
2022/10/24 09:48:29;;;;;;;8.40;3.10;;;;;;;14.27;100.00;96091.16;5048257;28;20029;-77
2022/10/24 09:50:56;;;;;;;8.30;2.23;;;;;;;14.32;100.00;96102.00;5048305;28;20037;-77
2022/10/24 09:53:34;;;;;;;8.50;1.93;;;;;;;14.37;100.00;96101.44;5049656;28;20029;-77
2022/10/24 09:56:08;;;;;;;9.90;2.80;;;;;;;14.38;100.00;96116.28;5049932;28;20039;-78
2022/10/24 09:58:34;;;;;;;5.93;2.03;;;;;;;14.41;100.00;96115.09;5049890;28;20775;-77
2022/10/24 10:01:04;;;;;;;7.50;2.43;;;;;;;14.42;100.00;96124.69;5045099;28;20033;-77
2022/10/24 10:03:32;;;;;;;9.47;3.77;;;;;;;14.44;100.00;96130.63;5049434;28;20036;-78
2022/10/24 10:06:03;;;;;;;10.90;2.40;;;;;;;14.48;100.00;96132.69;5052284;28;20078;-77
2022/10/24 10:08:33;;;;;;;8.43;2.40;;;;;;;14.55;100.00;96127.50;5052519;28;20489;-78
2022/10/24 10:11:05;;;;;;;8.23;2.60;;;;;;;14.54;100.00;96131.97;5049241;28;20040;-78
2022/10/24 10:13:37;;;;;;;7.88;2.45;;;;;;;14.60;100.00;96133.06;5032348;28;20437;-78
2022/10/24 10:16:06;;;;;;;8.20;2.50;;;;;;;14.59;100.00;96132.25;5048040;28;20025;-78
2022/10/24 10:18:45;;;;;;;8.40;2.83;;;;;;;14.55;100.00;96144.22;5048634;28;20036;-77
2022/10/24 10:21:15;;;;;;;8.68;3.05;;;;;;;14.57;100.00;96136.91;5041374;28;20037;-77
2022/10/24 10:23:49;;;;;;;10.02;2.63;;;;;;;14.54;100.00;96153.16;5048023;28;20043;-77
2022/10/24 10:26:29;;;;;;;7.55;2.33;;;;;;;14.52;100.00;96154.34;5048247;28;20363;-77
2022/10/24 10:29:05;;;;;;;9.20;2.57;;;;;;;14.47;100.00;96149.59;5048440;28;20041;-78
2022/10/24 10:31:37;;;;;;;7.97;2.38;;;;;;;14.55;100.00;96136.28;5048956;28;20033;-78
2022/10/24 10:34:27;;;;;;;12.82;2.60;;;;;;;14.39;100.00;96097.59;5047765;28;20025;-77
2022/10/24 10:37:31;;;;;;;9.60;2.80;;;;;;;14.46;100.00;96078.34;5047953;28;20090;-77
2022/10/24 10:40:15;;;;;;;6.40;2.33;;;;;;;14.46;100.00;96070.41;5049696;28;20040;-77
2022/10/24 10:43:05;;;;;;;9.02;2.22;;;;;;;14.48;100.00;96078.94;5041797;28;20045;-78
2022/10/24 10:45:45;;;;;;;9.00;2.50;;;;;;;14.59;100.00;96123.50;5040309;28;20037;-77
2022/10/24 10:48:19;;;;;;;6.67;2.30;;;;;;;14.59;100.00;96134.09;5033334;28;20120;-77
2022/10/24 10:51:07;;;;;;;7.40;2.10;;;;;;;14.66;100.00;96121.75;5056248;28;20485;-77
2022/10/24 10:54:13;;;;;;;6.90;2.00;;;;;;;14.68;100.00;96101.19;5046999;28;20104;-77
2022/10/24 10:56:52;;;;;;;9.90;2.27;;;;;;;14.72;100.00;96112.22;5053809;28;20473;-76
2022/10/24 10:59:28;;;;;;;7.97;2.40;;;;;;;14.76;100.00;96122.25;5037083;28;20032;-77
2022/10/24 11:02:20;;;;;;;10.13;2.15;;;;;;;14.72;100.00;96094.53;5046840;28;20036;-78
2022/10/24 11:04:57;;;;;;;10.15;2.28;;;;;;;14.71;100.00;96092.06;5046904;28;20033;-77
2022/10/24 11:07:43;;;;;;;5.68;2.30;;;;;;;14.71;100.00;96121.97;5046408;28;20437;-76
2022/10/24 11:10:13;;;;;;;4.88;2.05;;;;;;;14.79;100.00;96115.78;5039988;28;20029;-77
2022/10/24 11:12:45;;;;;;;10.27;1.95;;;;;;;14.81;100.00;96097.84;5041053;28;20036;-77
2022/10/24 11:15:39;;;;;;;8.20;2.17;;;;;;;14.85;100.00;96102.59;5048429;28;20028;-77
2022/10/24 11:18:12;;;;;;;6.00;1.88;;;;;;;14.87;100.00;96098.94;5047929;28;20041;-77
2022/10/24 11:20:51;;;;;;;7.25;2.20;;;;;;;14.94;100.00;96092.69;5047775;28;20142;-77
2022/10/24 11:23:41;;;;;;;5.70;2.17;;;;;;;14.96;100.00;96100.47;5042106;28;20045;-77
2022/10/24 11:26:14;;;;;;;6.43;2.00;;;;;;;15.02;100.00;96107.63;5041299;28;20060;-76
2022/10/24 11:28:58;;;;;;;8.55;1.80;;;;;;;15.09;100.00;96112.00;5053100;28;20036;-77
2022/10/24 11:31:42;;;;;;;7.70;1.58;;;;;;;15.14;100.00;96110.59;5042721;28;20025;-77
2022/10/24 11:34:36;;;;;;;5.35;1.58;;;;;;;15.20;100.00;96104.53;5047617;28;20414;-77
2022/10/24 11:37:05;;;;;;;;;;;;;;;15.36;100.00;96108.72;5049105;28;20037;-77
2022/10/24 11:39:51;;;;;;;7.70;1.95;;;;;;;15.48;100.00;96101.88;5041859;28;19916;-77